createdAt,value
2022-12-22T00:00:15.368Z,83.55
2022-12-22T00:01:36.309Z,83.59
2022-12-22T00:02:57.123Z,83.58
2022-12-22T00:04:18.259Z,83.59
2022-12-22T00:05:42.221Z,83.27
2022-12-22T00:07:03.320Z,83.41
2022-12-22T00:08:24.380Z,83.46
2022-12-22T00:09:45.641Z,83.53
2022-12-22T00:11:06.656Z,83.46
2022-12-22T00:12:29.547Z,83.35
2022-12-22T00:13:51.132Z,83.24
2022-12-22T00:15:12.312Z,83.19
2022-12-22T00:16:33.423Z,82.89
2022-12-22T00:17:54.397Z,83.19
2022-12-22T00:19:14.823Z,83.34
2022-12-22T00:20:39.409Z,83.17
2022-12-22T00:21:59.827Z,83.12
2022-12-22T00:23:20.901Z,82.99
2022-12-22T00:24:41.274Z,82.79
2022-12-22T00:26:02.252Z,82.82
2022-12-22T00:27:23.869Z,82.75
2022-12-22T00:28:44.979Z,82.85
2022-12-22T00:30:05.522Z,82.71
2022-12-22T00:31:26.749Z,82.65
2022-12-22T00:32:53.388Z,82.59
2022-12-22T00:34:14.642Z,82.50
2022-12-22T00:35:35.737Z,82.43
2022-12-22T00:36:56.829Z,82.35
2022-12-22T00:38:17.300Z,82.21
2022-12-22T00:39:38.671Z,82.26
2022-12-22T00:40:59.455Z,82.48
2022-12-22T00:42:20.081Z,82.28
2022-12-22T00:43:41.088Z,82.12
2022-12-22T00:45:02.131Z,82.51
2022-12-22T00:46:22.909Z,82.62
2022-12-22T00:47:48.182Z,82.80
2022-12-22T00:49:09.588Z,83.11
2022-12-22T00:50:30.958Z,82.94
2022-12-22T00:51:52.827Z,82.94
2022-12-22T00:53:15.332Z,83.01
2022-12-22T00:54:38.260Z,83.07
2022-12-22T00:55:59.279Z,83.00
2022-12-22T00:57:21.047Z,82.99
2022-12-22T00:58:41.757Z,82.91
2022-12-22T01:00:02.787Z,82.78
2022-12-22T01:01:23.444Z,82.78
2022-12-22T01:02:44.687Z,82.74
2022-12-22T01:04:05.492Z,82.66
2022-12-22T01:05:26.581Z,82.95
2022-12-22T01:06:50.722Z,82.89
2022-12-22T01:08:11.780Z,82.97
2022-12-22T01:09:32.246Z,82.94
2022-12-22T01:10:53.225Z,82.80
2022-12-22T01:12:13.654Z,82.93
2022-12-22T01:13:34.948Z,83.13
2022-12-22T01:14:56.217Z,83.14
2022-12-22T01:16:17.151Z,83.21
2022-12-22T01:17:37.581Z,83.35
2022-12-22T01:18:58.710Z,83.21
2022-12-22T01:20:19.219Z,83.33
2022-12-22T01:21:40.177Z,83.07
2022-12-22T01:23:00.615Z,83.46
2022-12-22T01:24:23.948Z,83.44
2022-12-22T01:25:44.974Z,83.45
2022-12-22T01:27:05.459Z,83.39
2022-12-22T01:28:32.804Z,83.19
2022-12-22T01:29:54.014Z,83.18
2022-12-22T01:31:15.232Z,83.23
2022-12-22T01:32:35.552Z,83.13
2022-12-22T01:33:56.526Z,83.21
2022-12-22T01:35:17.612Z,83.25
2022-12-22T01:36:38.709Z,83.42
2022-12-22T01:37:59.168Z,83.55
2022-12-22T01:39:20.254Z,83.27
2022-12-22T01:40:43.371Z,83.27
2022-12-22T01:42:05.793Z,83.57
2022-12-22T01:43:43.737Z,83.46
2022-12-22T01:45:04.532Z,83.37
2022-12-22T01:46:56.118Z,83.43
2022-12-22T01:48:17.049Z,83.54
2022-12-22T01:49:44.950Z,83.67
2022-12-22T01:51:06.100Z,83.65
2022-12-22T01:52:29.916Z,83.60
2022-12-22T01:53:50.792Z,83.29
2022-12-22T01:55:13.479Z,83.12
2022-12-22T01:56:34.494Z,82.96
2022-12-22T01:57:56.512Z,83.27
2022-12-22T01:59:19.582Z,83.58
2022-12-22T02:00:41.106Z,83.72
2022-12-22T02:02:02.828Z,83.57
2022-12-22T02:03:36.461Z,83.71
2022-12-22T02:05:02.964Z,83.76
2022-12-22T02:06:37.720Z,83.74
2022-12-22T02:08:01.205Z,83.81
2022-12-22T02:09:36.070Z,83.56
2022-12-22T02:11:33.830Z,83.62
2022-12-22T02:13:27.035Z,83.64
2022-12-22T02:15:05.831Z,84.02
2022-12-22T02:16:38.684Z,83.93
2022-12-22T02:18:32.875Z,84.61
2022-12-22T02:20:15.501Z,84.92
2022-12-22T02:21:41.404Z,84.84
2022-12-22T02:23:32.180Z,84.66
2022-12-22T02:25:11.616Z,84.79
2022-12-22T02:26:52.312Z,84.77
2022-12-22T02:28:14.673Z,84.60
2022-12-22T02:29:40.574Z,84.58
2022-12-22T02:31:01.695Z,84.60
2022-12-22T02:32:22.627Z,84.66
2022-12-22T02:33:43.831Z,84.39
2022-12-22T02:35:04.841Z,84.57
2022-12-22T02:36:50.571Z,84.76
2022-12-22T02:38:11.134Z,84.65
2022-12-22T02:39:41.619Z,84.60
2022-12-22T02:41:08.626Z,84.65
2022-12-22T02:42:47.514Z,84.74
2022-12-22T02:44:32.694Z,84.68
2022-12-22T02:46:04.771Z,84.66
2022-12-22T02:47:53.763Z,84.40
2022-12-22T02:49:19.963Z,84.66
2022-12-22T02:50:49.062Z,84.75
2022-12-22T02:52:17.335Z,84.77
2022-12-22T02:53:38.885Z,84.82
2022-12-22T02:55:00.541Z,84.95
2022-12-22T02:56:27.438Z,85.13
2022-12-22T02:57:48.539Z,85.23
2022-12-22T02:59:09.591Z,85.06
2022-12-22T03:00:30.704Z,85.12
2022-12-22T03:01:52.772Z,85.23
2022-12-22T03:03:13.878Z,84.95
2022-12-22T03:04:34.751Z,84.93
2022-12-22T03:05:55.823Z,84.85
2022-12-22T03:07:17.006Z,84.59
2022-12-22T03:08:37.701Z,84.25
2022-12-22T03:09:58.385Z,84.26
2022-12-22T03:11:19.283Z,84.06
2022-12-22T03:12:39.786Z,84.02
2022-12-22T03:14:00.826Z,84.30
2022-12-22T03:15:21.420Z,84.51
2022-12-22T03:16:42.685Z,84.72
2022-12-22T03:18:03.884Z,84.48
2022-12-22T03:19:24.842Z,84.45
2022-12-22T03:20:45.271Z,84.46
2022-12-22T03:22:06.225Z,84.42
2022-12-22T03:23:27.198Z,84.64
2022-12-22T03:24:47.637Z,85.02
2022-12-22T03:25:55.913Z,85.06
2022-12-22T03:26:58.080Z,85.17
2022-12-22T03:28:05.508Z,84.87
2022-12-22T03:29:07.934Z,84.75
2022-12-22T03:30:10.274Z,84.50
2022-12-22T03:31:12.487Z,84.37
2022-12-22T03:32:14.711Z,84.25
2022-12-22T03:33:16.875Z,84.23
2022-12-22T03:34:19.047Z,84.07
2022-12-22T03:35:21.508Z,83.99
2022-12-22T03:36:23.688Z,84.04
2022-12-22T03:37:25.882Z,84.01
2022-12-22T03:38:28.358Z,83.85
2022-12-22T03:39:30.546Z,83.80
2022-12-22T03:40:33.165Z,83.79
2022-12-22T03:41:54.173Z,83.63
2022-12-22T03:43:14.796Z,84.10
2022-12-22T03:44:35.886Z,84.44
2022-12-22T03:45:56.726Z,84.62
2022-12-22T03:46:58.877Z,84.33
2022-12-22T03:48:01.114Z,84.33
2022-12-22T03:49:10.994Z,84.15
2022-12-22T03:50:13.381Z,84.10
2022-12-22T03:51:15.741Z,84.16
2022-12-22T03:52:18.005Z,83.59
2022-12-22T03:53:20.194Z,83.38
2022-12-22T03:54:24.888Z,83.09
2022-12-22T03:55:27.378Z,82.94
2022-12-22T03:56:29.658Z,83.38
2022-12-22T03:57:32.106Z,83.50
2022-12-22T03:58:34.284Z,83.58
2022-12-22T03:59:36.455Z,83.57
2022-12-22T04:00:38.611Z,83.39
2022-12-22T04:01:48.738Z,83.35
2022-12-22T04:02:51.353Z,83.59
2022-12-22T04:03:53.719Z,83.89
2022-12-22T04:04:55.861Z,83.94
2022-12-22T04:05:58.196Z,83.75
2022-12-22T04:07:00.371Z,83.76
2022-12-22T04:08:02.930Z,83.67
2022-12-22T04:09:05.496Z,83.84
2022-12-22T04:10:26.754Z,84.03
2022-12-22T04:11:47.951Z,84.20
2022-12-22T04:12:56.024Z,84.04
2022-12-22T04:13:58.618Z,83.97
2022-12-22T04:15:01.000Z,83.95
2022-12-22T04:16:03.224Z,83.72
2022-12-22T04:17:07.144Z,83.76
2022-12-22T04:18:09.527Z,83.91
2022-12-22T04:19:11.744Z,83.85
2022-12-22T04:20:14.169Z,83.77
2022-12-22T04:21:16.456Z,83.77
2022-12-22T04:22:18.648Z,83.70
2022-12-22T04:23:20.800Z,83.75
2022-12-22T04:24:22.960Z,83.94
2022-12-22T04:25:26.747Z,83.90
2022-12-22T04:26:29.611Z,84.00
2022-12-22T04:27:31.814Z,83.73
2022-12-22T04:28:34.320Z,83.55
2022-12-22T04:29:36.500Z,83.60
2022-12-22T04:30:38.854Z,83.72
2022-12-22T04:31:41.374Z,83.95
2022-12-22T04:32:44.210Z,84.17
2022-12-22T04:33:47.159Z,84.40
2022-12-22T04:34:49.407Z,84.00
2022-12-22T04:35:51.898Z,84.36
2022-12-22T04:36:54.088Z,84.61
2022-12-22T04:37:56.278Z,84.45
2022-12-22T04:38:58.535Z,84.37
2022-12-22T04:40:00.680Z,84.10
2022-12-22T04:41:03.277Z,83.99
2022-12-22T04:42:05.483Z,83.80
2022-12-22T04:43:07.858Z,83.43
2022-12-22T04:44:10.067Z,83.19
2022-12-22T04:45:12.244Z,83.23
2022-12-22T04:46:14.523Z,83.05
2022-12-22T04:47:17.080Z,83.12
2022-12-22T04:48:20.135Z,83.19
2022-12-22T04:49:22.479Z,83.01
2022-12-22T04:50:24.838Z,83.14
2022-12-22T04:51:27.409Z,83.16
2022-12-22T04:52:29.834Z,83.20
2022-12-22T04:53:32.479Z,83.03
2022-12-22T04:54:34.607Z,83.08
2022-12-22T04:55:37.016Z,82.85
2022-12-22T04:56:39.309Z,83.23
2022-12-22T04:57:41.633Z,83.21
2022-12-22T04:58:43.802Z,83.06
2022-12-22T04:59:45.992Z,82.82
2022-12-22T05:00:48.422Z,82.99
2022-12-22T05:01:51.465Z,82.98
2022-12-22T05:02:54.202Z,82.84
2022-12-22T05:03:56.523Z,82.92
2022-12-22T05:04:58.686Z,82.77
2022-12-22T05:06:01.107Z,82.85
2022-12-22T05:07:03.387Z,82.90
2022-12-22T05:08:06.097Z,82.90
2022-12-22T05:09:09.647Z,83.04
2022-12-22T05:10:12.088Z,83.25
2022-12-22T05:11:14.424Z,83.25
2022-12-22T05:12:35.966Z,83.30
2022-12-22T05:13:38.873Z,83.16
2022-12-22T05:14:41.256Z,83.33
2022-12-22T05:15:43.439Z,83.18
2022-12-22T05:16:45.636Z,83.30
2022-12-22T05:17:48.239Z,83.06
2022-12-22T05:18:50.491Z,83.09
2022-12-22T05:19:52.862Z,83.36
2022-12-22T05:20:55.008Z,83.78
2022-12-22T05:21:57.473Z,83.97
2022-12-22T05:22:59.930Z,83.91
2022-12-22T05:24:02.136Z,83.87
2022-12-22T05:25:04.838Z,84.02
2022-12-22T05:26:07.468Z,84.04
2022-12-22T05:27:11.343Z,84.06
2022-12-22T05:28:13.931Z,84.28
2022-12-22T05:29:16.139Z,84.80
2022-12-22T05:30:20.078Z,84.98
2022-12-22T05:31:24.324Z,84.97
2022-12-22T05:32:27.083Z,84.95
2022-12-22T05:33:29.489Z,84.79
2022-12-22T05:34:32.796Z,84.83
2022-12-22T05:35:35.194Z,84.91
2022-12-22T05:36:37.359Z,85.02
2022-12-22T05:37:39.714Z,84.70
2022-12-22T05:38:42.604Z,84.68
2022-12-22T05:39:44.826Z,84.49
2022-12-22T05:40:47.661Z,84.36
2022-12-22T05:41:49.855Z,84.30
2022-12-22T05:42:52.254Z,84.20
2022-12-22T05:43:54.814Z,84.39
2022-12-22T05:44:56.968Z,83.86
2022-12-22T05:46:05.924Z,84.22
2022-12-22T05:47:08.364Z,84.03
2022-12-22T05:48:10.954Z,83.92
2022-12-22T05:49:13.153Z,84.15
2022-12-22T05:50:18.208Z,84.10
2022-12-22T05:51:20.359Z,83.95
2022-12-22T05:52:22.749Z,83.83
2022-12-22T05:53:25.222Z,83.62
2022-12-22T05:54:27.472Z,83.36
2022-12-22T05:55:29.900Z,83.20
2022-12-22T05:56:32.139Z,83.46
2022-12-22T05:57:34.877Z,83.30
2022-12-22T05:58:40.071Z,83.10
2022-12-22T05:59:42.318Z,83.08
2022-12-22T06:00:44.693Z,83.01
2022-12-22T06:01:47.042Z,82.73
2022-12-22T06:02:49.690Z,82.62
2022-12-22T06:03:57.746Z,82.66
2022-12-22T06:05:02.403Z,82.78
2022-12-22T06:06:05.228Z,82.97
2022-12-22T06:07:07.405Z,82.95
2022-12-22T06:08:09.577Z,83.00
2022-12-22T06:09:12.132Z,82.94
2022-12-22T06:10:14.902Z,82.79
2022-12-22T06:11:18.378Z,82.88
2022-12-22T06:12:20.758Z,82.60
2022-12-22T06:13:23.363Z,82.63
2022-12-22T06:14:25.811Z,82.74
2022-12-22T06:15:28.016Z,82.56
2022-12-22T06:16:30.449Z,82.31
2022-12-22T06:17:32.703Z,82.59
2022-12-22T06:18:34.875Z,82.62
2022-12-22T06:19:37.509Z,82.51
2022-12-22T06:20:39.750Z,82.77
2022-12-22T06:21:41.913Z,82.65
2022-12-22T06:22:44.167Z,82.60
2022-12-22T06:23:46.982Z,82.41
2022-12-22T06:24:49.188Z,82.47
2022-12-22T06:25:59.432Z,82.54
2022-12-22T06:27:01.908Z,82.75
2022-12-22T06:28:04.435Z,82.84
2022-12-22T06:29:06.704Z,82.85
2022-12-22T06:30:09.658Z,82.67
2022-12-22T06:31:11.928Z,82.48
2022-12-22T06:32:14.148Z,82.13
2022-12-22T06:33:16.644Z,82.17
2022-12-22T06:34:19.468Z,82.61
2022-12-22T06:35:21.694Z,82.52
2022-12-22T06:36:23.862Z,82.23
2022-12-22T06:37:26.053Z,82.12
2022-12-22T06:38:28.627Z,82.19
2022-12-22T06:39:31.146Z,81.88
2022-12-22T06:40:33.345Z,81.88
2022-12-22T06:41:54.094Z,81.97
2022-12-22T06:43:11.211Z,82.16
2022-12-22T06:44:13.602Z,82.15
2022-12-22T06:45:15.803Z,81.92
2022-12-22T06:46:18.014Z,81.79
2022-12-22T06:47:20.386Z,81.73
2022-12-22T06:48:23.431Z,81.83
2022-12-22T06:49:26.036Z,81.60
2022-12-22T06:50:28.252Z,81.52
2022-12-22T06:51:30.491Z,81.50
2022-12-22T06:52:32.883Z,81.36
2022-12-22T06:53:35.079Z,81.48
2022-12-22T06:54:37.483Z,81.57
2022-12-22T06:55:39.640Z,81.66
2022-12-22T06:56:41.901Z,81.67
2022-12-22T06:57:44.320Z,81.68
2022-12-22T06:58:46.569Z,81.67
2022-12-22T06:59:55.328Z,81.60
2022-12-22T07:00:59.844Z,81.94
2022-12-22T07:02:02.387Z,82.28
2022-12-22T07:03:04.971Z,82.73
2022-12-22T07:04:07.549Z,82.66
2022-12-22T07:05:10.293Z,82.83
2022-12-22T07:06:12.568Z,83.02
2022-12-22T07:07:14.938Z,83.28
2022-12-22T07:08:17.288Z,83.57
2022-12-22T07:09:19.681Z,83.48
2022-12-22T07:10:42.106Z,83.53
2022-12-22T07:11:44.309Z,83.56
2022-12-22T07:12:46.477Z,83.99
2022-12-22T07:13:48.695Z,84.36
2022-12-22T07:14:51.378Z,84.52
2022-12-22T07:16:01.921Z,84.60
2022-12-22T07:17:04.281Z,84.81
2022-12-22T07:18:06.541Z,84.92
2022-12-22T07:19:08.736Z,85.17
2022-12-22T07:20:11.842Z,85.04
2022-12-22T07:21:14.627Z,85.36
2022-12-22T07:22:16.975Z,85.20
2022-12-22T07:23:19.193Z,85.16
2022-12-22T07:24:23.153Z,84.92
2022-12-22T07:25:25.626Z,85.04
2022-12-22T07:26:27.962Z,84.99
2022-12-22T07:27:30.333Z,85.26
2022-12-22T07:28:37.002Z,85.30
2022-12-22T07:29:40.591Z,85.62
2022-12-22T07:30:42.783Z,86.04
2022-12-22T07:31:44.956Z,86.28
2022-12-22T07:32:47.157Z,86.22
2022-12-22T07:33:49.332Z,86.31
2022-12-22T07:34:51.553Z,86.10
2022-12-22T07:36:14.380Z,86.15
2022-12-22T07:37:16.659Z,86.00
2022-12-22T07:38:18.833Z,86.32
2022-12-22T07:39:21.031Z,86.28
2022-12-22T07:40:23.250Z,86.54
2022-12-22T07:41:44.073Z,86.71
2022-12-22T07:42:47.275Z,86.66
2022-12-22T07:43:49.467Z,86.94
2022-12-22T07:44:51.921Z,86.63
2022-12-22T07:45:54.168Z,86.52
2022-12-22T07:46:56.534Z,86.36
2022-12-22T07:48:22.894Z,86.25
2022-12-22T07:49:43.344Z,86.34
2022-12-22T07:50:45.705Z,86.27
2022-12-22T07:51:47.875Z,86.44
2022-12-22T07:52:50.170Z,86.47
2022-12-22T07:53:52.370Z,86.48
2022-12-22T07:54:54.733Z,86.61
2022-12-22T07:55:57.031Z,86.56
2022-12-22T07:56:59.272Z,86.60
2022-12-22T07:58:01.528Z,86.66
2022-12-22T07:59:04.164Z,86.70
2022-12-22T08:00:07.465Z,86.61
2022-12-22T08:01:14.243Z,86.55
2022-12-22T08:02:17.074Z,86.67
2022-12-22T08:03:19.564Z,86.81
2022-12-22T08:04:22.542Z,86.52
2022-12-22T08:05:25.501Z,86.42
2022-12-22T08:06:28.453Z,86.04
2022-12-22T08:07:32.624Z,85.97
2022-12-22T08:08:35.357Z,85.85
2022-12-22T08:09:37.655Z,86.11
2022-12-22T08:10:39.844Z,86.10
2022-12-22T08:11:42.547Z,85.98
2022-12-22T08:12:44.996Z,85.72
2022-12-22T08:13:47.349Z,85.42
2022-12-22T08:14:49.719Z,85.45
2022-12-22T08:15:51.951Z,85.08
2022-12-22T08:16:54.626Z,85.20
2022-12-22T08:17:57.018Z,85.43
2022-12-22T08:18:59.251Z,85.25
2022-12-22T08:20:02.122Z,85.57
2022-12-22T08:21:06.120Z,86.04
2022-12-22T08:22:08.996Z,85.89
2022-12-22T08:23:11.160Z,85.79
2022-12-22T08:24:13.307Z,85.69
2022-12-22T08:25:15.622Z,85.73
2022-12-22T08:26:48.502Z,86.06
2022-12-22T08:27:54.258Z,86.08
2022-12-22T08:29:10.437Z,85.69
2022-12-22T08:30:13.177Z,86.34
2022-12-22T08:31:15.808Z,86.08
2022-12-22T08:32:18.403Z,85.92
2022-12-22T08:33:20.580Z,85.86
2022-12-22T08:34:22.933Z,85.42
2022-12-22T08:35:25.274Z,85.69
2022-12-22T08:36:27.704Z,85.65
2022-12-22T08:37:33.932Z,85.50
2022-12-22T08:38:39.646Z,85.33
2022-12-22T08:39:44.497Z,85.29
2022-12-22T08:40:48.439Z,85.24
2022-12-22T08:41:51.057Z,85.11
2022-12-22T08:42:59.285Z,84.89
2022-12-22T08:44:01.574Z,84.53
2022-12-22T08:45:04.859Z,84.47
2022-12-22T08:46:07.150Z,84.39
2022-12-22T08:47:16.425Z,84.08
2022-12-22T08:48:19.430Z,84.12
2022-12-22T08:49:22.763Z,84.28
2022-12-22T08:50:26.328Z,84.09
2022-12-22T08:51:28.485Z,84.07
2022-12-22T08:52:31.842Z,83.86
2022-12-22T08:54:03.713Z,83.47
2022-12-22T08:54:57.462Z,83.21
2022-12-22T08:55:59.834Z,83.44
2022-12-22T08:57:02.518Z,83.39
2022-12-22T08:58:05.003Z,83.24
2022-12-22T08:59:08.129Z,82.91
2022-12-22T09:00:13.169Z,82.77
2022-12-22T09:01:20.925Z,82.99
2022-12-22T09:02:23.310Z,83.38
2022-12-22T09:03:25.874Z,83.53
2022-12-22T09:04:28.080Z,83.60
2022-12-22T09:05:30.273Z,83.51
2022-12-22T09:06:40.533Z,83.57
2022-12-22T09:07:43.621Z,83.58
2022-12-22T09:08:46.282Z,84.13
2022-12-22T09:09:48.616Z,84.03
2022-12-22T09:10:50.862Z,83.98
2022-12-22T09:11:53.245Z,84.12
2022-12-22T09:12:55.406Z,84.13
2022-12-22T09:14:00.645Z,84.10
2022-12-22T09:15:02.876Z,83.87
2022-12-22T09:16:09.298Z,84.02
2022-12-22T09:17:11.848Z,83.89
2022-12-22T09:18:14.184Z,84.15
2022-12-22T09:19:16.799Z,84.11
2022-12-22T09:20:19.224Z,84.06
2022-12-22T09:21:22.730Z,83.87
2022-12-22T09:22:28.228Z,84.08
2022-12-22T09:23:32.494Z,84.16
2022-12-22T09:24:35.010Z,84.22
2022-12-22T09:25:37.376Z,84.22
2022-12-22T09:26:39.801Z,84.29
2022-12-22T09:27:42.202Z,84.28
2022-12-22T09:28:49.814Z,84.21
2022-12-22T09:29:52.861Z,83.70
2022-12-22T09:30:55.071Z,83.54
2022-12-22T09:31:57.470Z,83.59
2022-12-22T09:32:59.676Z,83.24
2022-12-22T09:34:02.231Z,83.15
2022-12-22T09:35:04.875Z,83.22
2022-12-22T09:36:14.880Z,82.72
2022-12-22T09:37:17.978Z,82.50
2022-12-22T09:38:20.412Z,82.37
2022-12-22T09:39:28.625Z,82.20
2022-12-22T09:40:32.847Z,82.15
2022-12-22T09:41:46.401Z,82.13
2022-12-22T09:42:48.571Z,82.33
2022-12-22T09:43:51.049Z,81.92
2022-12-22T09:44:53.419Z,81.54
2022-12-22T09:45:58.369Z,81.55
2022-12-22T09:47:04.522Z,81.94
2022-12-22T09:48:11.474Z,81.88
2022-12-22T09:49:16.348Z,81.75
2022-12-22T09:50:21.366Z,81.48
2022-12-22T09:51:26.995Z,81.39
2022-12-22T09:52:35.506Z,81.60
2022-12-22T09:53:37.888Z,81.30
2022-12-22T09:54:40.358Z,81.58
2022-12-22T09:55:47.825Z,81.56
2022-12-22T09:56:50.212Z,81.69
2022-12-22T09:57:55.253Z,81.86
2022-12-22T09:58:58.279Z,81.70
2022-12-22T10:00:19.332Z,82.14
2022-12-22T10:01:33.698Z,82.04
2022-12-22T10:02:49.337Z,81.67
2022-12-22T10:04:00.951Z,81.16
2022-12-22T10:05:10.764Z,81.21
2022-12-22T10:06:50.915Z,81.06
2022-12-22T10:07:57.624Z,81.06
2022-12-22T10:09:05.808Z,80.94
2022-12-22T10:10:28.509Z,80.94
2022-12-22T10:11:30.729Z,80.89
2022-12-22T10:12:32.937Z,80.78
2022-12-22T10:13:35.093Z,80.49
2022-12-22T10:14:44.020Z,80.66
2022-12-22T10:15:47.037Z,80.63
2022-12-22T10:16:49.298Z,80.76
2022-12-22T10:17:53.733Z,80.69
2022-12-22T10:19:11.952Z,80.69
2022-12-22T10:20:29.812Z,80.41
2022-12-22T10:21:42.695Z,80.57
2022-12-22T10:22:59.151Z,80.25
2022-12-22T10:24:15.976Z,80.38
2022-12-22T10:26:16.950Z,80.99
2022-12-22T10:27:03.751Z,81.51
2022-12-22T10:28:17.184Z,81.43
2022-12-22T10:29:20.054Z,81.76
2022-12-22T10:30:25.421Z,81.54
2022-12-22T10:31:30.301Z,81.61
2022-12-22T10:32:33.183Z,81.77
2022-12-22T10:33:36.305Z,81.46
2022-12-22T10:34:59.466Z,81.17
2022-12-22T10:36:02.229Z,80.91
2022-12-22T10:37:06.084Z,81.01
2022-12-22T10:38:21.284Z,81.22
2022-12-22T10:39:27.045Z,81.20
2022-12-22T10:40:32.951Z,81.21
2022-12-22T10:41:42.096Z,81.70
2022-12-22T10:42:50.569Z,81.48
2022-12-22T10:44:02.213Z,81.72
2022-12-22T10:45:04.969Z,81.62
2022-12-22T10:46:07.543Z,82.30
2022-12-22T10:47:24.442Z,82.74
2022-12-22T10:48:35.250Z,83.38
2022-12-22T10:50:48.493Z,83.52
2022-12-22T10:51:58.688Z,83.54
2022-12-22T10:53:03.228Z,83.41
2022-12-22T10:54:05.486Z,83.44
2022-12-22T10:55:19.359Z,83.42
2022-12-22T10:56:27.365Z,82.84
2022-12-22T10:57:30.035Z,83.09
2022-12-22T10:58:55.818Z,82.69
2022-12-22T11:00:21.139Z,82.36
2022-12-22T11:01:32.847Z,82.09
2022-12-22T11:02:39.563Z,81.63
2022-12-22T11:03:41.969Z,81.52
2022-12-22T11:04:44.462Z,81.59
2022-12-22T11:05:46.938Z,81.35
2022-12-22T11:06:49.996Z,81.20
2022-12-22T11:07:53.426Z,81.16
2022-12-22T11:09:23.787Z,81.04
2022-12-22T11:10:21.687Z,80.59
2022-12-22T11:11:45.438Z,80.69
2022-12-22T11:13:08.913Z,80.88
2022-12-22T11:14:34.767Z,80.95
2022-12-22T11:16:02.202Z,81.28
2022-12-22T11:17:11.350Z,80.97
2022-12-22T11:18:23.895Z,81.41
2022-12-22T11:19:29.326Z,81.85
2022-12-22T11:20:50.235Z,82.00
2022-12-22T11:22:06.228Z,82.28
2022-12-22T11:23:27.445Z,82.70
2022-12-22T11:24:29.453Z,82.29
2022-12-22T11:25:59.528Z,82.22
2022-12-22T11:27:27.850Z,82.56
2022-12-22T11:28:56.776Z,82.55
2022-12-22T11:30:08.319Z,82.83
2022-12-22T11:31:28.977Z,82.90
2022-12-22T11:33:00.641Z,82.71
2022-12-22T11:34:21.743Z,82.73
2022-12-22T11:35:33.018Z,82.91
2022-12-22T11:37:13.832Z,83.28
2022-12-22T11:38:40.431Z,83.01
2022-12-22T11:39:47.479Z,83.46
2022-12-22T11:40:59.383Z,83.37
2022-12-22T11:42:23.250Z,83.56
2022-12-22T11:43:38.291Z,83.78
2022-12-22T11:44:59.064Z,84.50
2022-12-22T11:46:22.530Z,84.72
2022-12-22T11:47:55.250Z,85.16
2022-12-22T11:49:22.226Z,85.50
2022-12-22T11:51:00.076Z,85.70
2022-12-22T11:52:08.167Z,85.41
2022-12-22T11:53:46.298Z,85.18
2022-12-22T11:55:19.173Z,84.96
2022-12-22T11:56:33.285Z,85.13
2022-12-22T11:58:03.319Z,85.04
2022-12-22T11:59:42.495Z,84.68
2022-12-22T12:01:15.373Z,84.97
2022-12-22T12:03:00.028Z,84.93
2022-12-22T12:04:11.443Z,85.07
2022-12-22T12:05:35.556Z,84.92
2022-12-22T12:06:59.537Z,84.65
2022-12-22T12:08:32.651Z,84.52
2022-12-22T12:09:57.130Z,84.38
2022-12-22T12:11:18.333Z,84.23
2022-12-22T12:12:39.006Z,83.87
2022-12-22T12:13:57.114Z,84.07
2022-12-22T12:15:23.948Z,83.53
2022-12-22T12:16:44.985Z,83.26
2022-12-22T12:18:35.701Z,83.44
2022-12-22T12:20:15.297Z,82.91
2022-12-22T12:21:26.458Z,82.40
2022-12-22T12:23:07.165Z,82.69
2022-12-22T12:24:18.428Z,83.20
2022-12-22T12:25:47.299Z,83.09
2022-12-22T12:27:17.203Z,83.05
2022-12-22T12:28:57.726Z,83.41
2022-12-22T12:30:37.546Z,83.98
2022-12-22T12:31:44.730Z,84.03
2022-12-22T12:33:05.246Z,83.96
2022-12-22T12:34:12.543Z,84.05
2022-12-22T12:35:20.919Z,83.59
2022-12-22T12:36:41.356Z,83.68
2022-12-22T12:37:46.340Z,83.75
2022-12-22T12:39:17.272Z,83.75
2022-12-22T12:40:31.784Z,83.33
2022-12-22T12:41:45.315Z,83.66
2022-12-22T12:42:48.975Z,83.49
2022-12-22T12:43:54.525Z,83.62
2022-12-22T12:44:56.694Z,83.32
2022-12-22T12:45:59.067Z,83.37
2022-12-22T12:47:25.173Z,83.49
2022-12-22T12:48:27.274Z,83.55
2022-12-22T12:49:35.863Z,83.68
2022-12-22T12:50:38.388Z,83.69
2022-12-22T12:51:50.072Z,83.35
2022-12-22T12:52:52.366Z,83.48
2022-12-22T12:54:29.972Z,83.15
2022-12-22T12:55:34.997Z,83.20
2022-12-22T12:57:10.200Z,82.79
2022-12-22T12:58:32.621Z,82.82
2022-12-22T12:59:40.525Z,83.19
2022-12-22T13:00:49.922Z,83.47
2022-12-22T13:01:59.167Z,83.20
2022-12-22T13:03:03.220Z,83.20
2022-12-22T13:04:28.737Z,83.12
2022-12-22T13:05:36.396Z,83.14
2022-12-22T13:06:55.510Z,83.04
2022-12-22T13:08:14.696Z,83.47
2022-12-22T13:10:45.255Z,83.48
2022-12-22T13:12:11.819Z,83.48
2022-12-22T13:13:21.987Z,83.27
2022-12-22T13:14:56.338Z,83.19
2022-12-22T13:16:01.584Z,83.36
2022-12-22T13:17:33.114Z,83.15
2022-12-22T13:18:35.674Z,83.04
2022-12-22T13:19:37.983Z,83.06
2022-12-22T13:20:41.135Z,83.00
2022-12-22T13:21:54.440Z,83.03
2022-12-22T13:23:00.288Z,82.75
2022-12-22T13:25:42.564Z,83.09
2022-12-22T13:26:47.092Z,83.19
2022-12-22T13:27:50.845Z,83.27
2022-12-22T13:28:59.564Z,82.95
2022-12-22T13:30:01.985Z,83.01
2022-12-22T13:31:13.203Z,82.82
2022-12-22T13:32:22.627Z,82.94
2022-12-22T13:33:29.759Z,82.71
2022-12-22T13:34:46.253Z,82.45
2022-12-22T13:36:00.093Z,82.38
2022-12-22T13:37:16.415Z,82.51
2022-12-22T13:38:32.807Z,82.78
2022-12-22T13:39:35.191Z,83.37
2022-12-22T13:40:43.397Z,83.07
2022-12-22T13:41:49.996Z,83.55
2022-12-22T13:42:57.774Z,83.86
2022-12-22T13:44:13.910Z,84.13
2022-12-22T13:45:20.606Z,84.41
2022-12-22T13:46:23.088Z,84.83
2022-12-22T13:47:25.675Z,85.10
2022-12-22T13:48:31.073Z,84.91
2022-12-22T13:50:07.356Z,84.96
2022-12-22T13:51:00.769Z,85.17
2022-12-22T13:52:05.422Z,85.39
2022-12-22T13:53:15.392Z,85.62
2022-12-22T13:54:45.628Z,85.57
2022-12-22T13:55:49.583Z,85.62
2022-12-22T13:56:54.703Z,85.56
2022-12-22T13:58:04.092Z,85.47
2022-12-22T13:59:33.670Z,85.39
2022-12-22T14:00:36.400Z,85.57
2022-12-22T14:01:50.126Z,85.85
2022-12-22T14:02:52.990Z,85.62
2022-12-22T14:04:02.583Z,85.59
2022-12-22T14:05:11.482Z,85.56
2022-12-22T14:06:20.835Z,85.71
2022-12-22T14:07:23.207Z,85.76
2022-12-22T14:08:25.482Z,86.05
2022-12-22T14:09:28.226Z,85.98
2022-12-22T14:10:44.047Z,85.59
2022-12-22T14:12:03.415Z,85.90
2022-12-22T14:13:12.455Z,85.39
2022-12-22T14:14:19.663Z,85.44
2022-12-22T14:15:21.897Z,85.29
2022-12-22T14:16:24.162Z,85.41
2022-12-22T14:17:32.879Z,85.80
2022-12-22T14:18:36.903Z,85.90
2022-12-22T14:19:39.256Z,86.14
2022-12-22T14:20:44.395Z,85.66
2022-12-22T14:21:55.498Z,85.52
2022-12-22T14:23:22.237Z,85.41
2022-12-22T14:24:32.077Z,85.77
2022-12-22T14:25:40.251Z,85.79
2022-12-22T14:26:43.004Z,85.68
2022-12-22T14:27:51.747Z,85.67
2022-12-22T14:28:56.620Z,85.61
2022-12-22T14:30:02.010Z,85.41
2022-12-22T14:31:07.184Z,85.36
2022-12-22T14:32:11.363Z,85.39
2022-12-22T14:33:34.257Z,85.33
2022-12-22T14:34:37.832Z,85.25
2022-12-22T14:35:40.186Z,85.28
2022-12-22T14:36:46.149Z,85.03
2022-12-22T14:37:50.328Z,84.97
2022-12-22T14:38:55.320Z,84.79
2022-12-22T14:39:57.520Z,84.68
2022-12-22T14:40:59.811Z,84.71
2022-12-22T14:42:04.951Z,84.84
2022-12-22T14:43:14.863Z,84.92
2022-12-22T14:44:22.964Z,84.97
2022-12-22T14:45:25.670Z,84.90
2022-12-22T14:46:31.116Z,84.91
2022-12-22T14:47:37.508Z,84.59
2022-12-22T14:48:46.478Z,84.59
2022-12-22T14:50:19.298Z,84.76
2022-12-22T14:51:21.976Z,84.99
2022-12-22T14:52:35.869Z,85.07
2022-12-22T14:53:51.532Z,85.19
2022-12-22T14:54:55.619Z,85.21
2022-12-22T14:55:58.103Z,85.54
2022-12-22T14:57:16.586Z,86.06
2022-12-22T14:58:31.177Z,85.86
2022-12-22T14:59:33.600Z,85.74
2022-12-22T15:00:39.403Z,85.58
2022-12-22T15:02:03.269Z,85.81
2022-12-22T15:03:36.263Z,85.75
2022-12-22T15:04:38.858Z,85.81
2022-12-22T15:05:44.763Z,85.72
2022-12-22T15:06:48.820Z,85.62
2022-12-22T15:08:09.785Z,85.98
2022-12-22T15:09:15.204Z,86.62
2022-12-22T15:10:18.638Z,86.67
2022-12-22T15:11:24.416Z,86.64
2022-12-22T15:12:26.774Z,86.66
2022-12-22T15:13:30.718Z,86.63
2022-12-22T15:14:38.777Z,86.91
2022-12-22T15:15:41.387Z,86.92
2022-12-22T15:16:44.697Z,87.05